createdAt,value
2023-02-04T00:00:46.271Z,4.52
2023-02-04T00:03:49.279Z,4.56
2023-02-04T00:06:51.961Z,4.47
2023-02-04T00:09:55.077Z,4.56
2023-02-04T00:12:57.779Z,4.56
2023-02-04T00:16:00.932Z,4.51
2023-02-04T00:19:03.653Z,4.59
2023-02-04T00:22:08.074Z,4.60
2023-02-04T00:25:10.800Z,4.61
2023-02-04T00:28:13.802Z,4.66
2023-02-04T00:31:16.641Z,4.63
2023-02-04T00:34:19.807Z,4.67
2023-02-04T00:37:22.720Z,4.68
2023-02-04T00:40:25.767Z,4.72
2023-02-04T00:43:28.478Z,4.75
2023-02-04T00:46:31.488Z,4.75
2023-02-04T00:49:34.980Z,4.84
2023-02-04T00:52:38.039Z,4.87
2023-02-04T00:55:40.657Z,4.91
2023-02-04T00:58:43.651Z,4.96
2023-02-04T01:01:46.466Z,5.05
2023-02-04T01:04:50.646Z,5.13
2023-02-04T01:07:53.501Z,5.10
2023-02-04T01:10:56.511Z,5.18
2023-02-04T01:13:59.611Z,5.19
2023-02-04T01:17:02.671Z,5.26
2023-02-04T01:20:05.538Z,5.22
2023-02-04T01:23:09.333Z,5.22
2023-02-04T01:26:11.993Z,5.24
2023-02-04T01:29:15.066Z,5.25
2023-02-04T01:32:17.697Z,5.29
2023-02-04T01:35:21.345Z,5.27
2023-02-04T01:38:24.188Z,5.22
2023-02-04T01:41:28.222Z,5.20
2023-02-04T01:44:31.552Z,5.21
2023-02-04T01:47:35.432Z,5.11
2023-02-04T01:50:38.600Z,5.17
2023-02-04T01:53:42.360Z,5.19
2023-02-04T01:56:47.354Z,5.15
2023-02-04T01:59:54.923Z,5.11
2023-02-04T02:02:59.379Z,5.05
2023-02-04T02:06:02.477Z,5.10
2023-02-04T02:09:05.733Z,5.17
2023-02-04T02:12:08.833Z,5.23
2023-02-04T02:15:12.981Z,5.26
2023-02-04T02:18:16.289Z,5.31
2023-02-04T02:21:49.556Z,5.35
2023-02-04T02:24:52.511Z,5.39
2023-02-04T02:27:57.402Z,5.38
2023-02-04T02:31:01.057Z,5.36
2023-02-04T02:34:03.868Z,5.36
2023-02-04T02:37:09.297Z,5.39
2023-02-04T02:40:12.684Z,5.42
2023-02-04T02:43:20.280Z,5.40
2023-02-04T02:46:23.089Z,5.42
2023-02-04T02:49:26.678Z,5.39
2023-02-04T02:52:29.399Z,5.36
2023-02-04T02:55:32.683Z,5.36
2023-02-04T02:58:39.095Z,5.35
2023-02-04T03:01:43.620Z,5.34
2023-02-04T03:04:54.437Z,5.36
2023-02-04T03:07:58.831Z,5.36
2023-02-04T03:11:01.787Z,5.38
2023-02-04T03:14:05.600Z,5.38
2023-02-04T03:17:10.856Z,5.37
2023-02-04T03:20:15.704Z,5.38
2023-02-04T03:23:20.416Z,5.39
2023-02-04T03:26:25.164Z,5.45
2023-02-04T03:29:29.739Z,5.45
2023-02-04T03:32:32.985Z,5.44
2023-02-04T03:35:35.775Z,5.45
2023-02-04T03:38:39.087Z,5.43
2023-02-04T03:41:41.740Z,5.45
2023-02-04T03:44:44.776Z,5.48
2023-02-04T03:47:47.517Z,5.52
2023-02-04T03:50:50.549Z,5.63
2023-02-04T03:53:53.246Z,5.62
2023-02-04T03:56:56.269Z,5.62
2023-02-04T03:59:58.937Z,5.64
2023-02-04T04:03:01.928Z,5.63
2023-02-04T04:06:06.563Z,5.66
2023-02-04T04:09:09.241Z,5.65
2023-02-04T04:12:12.263Z,5.66
2023-02-04T04:15:14.902Z,5.60
2023-02-04T04:18:18.080Z,5.57
2023-02-04T04:21:20.694Z,5.55
2023-02-04T04:24:23.733Z,5.52
2023-02-04T04:27:26.427Z,5.53
2023-02-04T04:30:29.725Z,5.56
2023-02-04T04:33:36.982Z,5.55
2023-02-04T04:36:40.031Z,5.58
2023-02-04T04:39:42.767Z,5.60
2023-02-04T04:42:45.768Z,5.59
2023-02-04T04:45:48.477Z,5.57
2023-02-04T04:48:51.520Z,5.53
2023-02-04T04:51:54.128Z,5.53
2023-02-04T04:54:57.184Z,5.56
2023-02-04T04:57:59.836Z,5.60
2023-02-04T05:01:02.945Z,5.68
2023-02-04T05:04:05.735Z,5.82
2023-02-04T05:07:08.838Z,5.79
2023-02-04T05:10:11.546Z,5.64
2023-02-04T05:13:14.956Z,5.50
2023-02-04T05:16:18.508Z,5.33
2023-02-04T05:19:21.568Z,5.16
2023-02-04T05:22:24.217Z,5.02
2023-02-04T05:25:28.829Z,4.87
2023-02-04T05:28:31.560Z,4.78
2023-02-04T05:31:34.971Z,4.71
2023-02-04T05:34:39.728Z,4.66
2023-02-04T05:37:42.986Z,4.61
2023-02-04T05:40:45.626Z,4.63
2023-02-04T05:43:48.670Z,4.59
2023-02-04T05:46:51.363Z,4.52
2023-02-04T05:49:54.451Z,4.51
2023-02-04T05:52:57.243Z,4.51
2023-02-04T05:56:00.240Z,4.50
2023-02-04T05:59:02.975Z,4.48
2023-02-04T06:02:06.121Z,4.49
2023-02-04T06:05:09.406Z,4.48
2023-02-04T06:08:12.042Z,4.51
2023-02-04T06:11:15.109Z,4.53
2023-02-04T06:14:17.777Z,4.51
2023-02-04T06:17:20.895Z,4.51
2023-02-04T06:20:23.584Z,4.52
2023-02-04T06:23:26.671Z,4.53
2023-02-04T06:26:29.494Z,4.50
2023-02-04T06:29:32.521Z,4.46
2023-02-04T06:32:35.238Z,4.44
2023-02-04T06:35:38.443Z,4.39
2023-02-04T06:38:41.170Z,4.29
2023-02-04T06:41:44.217Z,4.16
2023-02-04T06:44:47.374Z,3.95
2023-02-04T06:47:50.708Z,3.75
2023-02-04T06:50:53.451Z,3.63
2023-02-04T06:53:56.605Z,3.50
2023-02-04T06:57:06.751Z,3.35
2023-02-04T07:00:11.851Z,3.28
2023-02-04T07:03:14.547Z,3.17
2023-02-04T07:06:17.588Z,3.07
2023-02-04T07:09:20.381Z,3.04
2023-02-04T07:12:23.470Z,2.98
2023-02-04T07:15:26.213Z,2.91
2023-02-04T07:18:29.318Z,2.86
2023-02-04T07:21:31.994Z,2.79
2023-02-04T07:24:35.042Z,2.74
2023-02-04T07:27:37.775Z,2.66
2023-02-04T07:30:40.842Z,2.59
2023-02-04T07:33:43.600Z,2.56
2023-02-04T07:36:46.883Z,2.55
2023-02-04T07:39:49.703Z,2.52
2023-02-04T07:42:52.710Z,2.44
2023-02-04T07:45:57.345Z,2.43
2023-02-04T07:49:00.455Z,2.39
2023-02-04T07:52:03.241Z,2.40
2023-02-04T07:55:07.393Z,2.51
2023-02-04T07:58:10.159Z,2.70
2023-02-04T08:01:13.205Z,2.82
2023-02-04T08:04:16.268Z,2.93
2023-02-04T08:07:19.282Z,2.89
2023-02-04T08:10:22.427Z,2.88
2023-02-04T08:13:25.677Z,2.83
2023-02-04T08:16:28.773Z,2.97
2023-02-04T08:19:31.449Z,3.17
2023-02-04T08:22:35.390Z,3.62
2023-02-04T08:25:38.050Z,3.81
2023-02-04T08:28:41.113Z,3.49
2023-02-04T08:31:43.919Z,3.46
2023-02-04T08:34:48.879Z,3.91
2023-02-04T08:37:51.620Z,4.67
2023-02-04T08:40:54.752Z,5.34
2023-02-04T08:43:57.425Z,5.61
2023-02-04T08:47:00.429Z,5.70
2023-02-04T08:50:03.697Z,5.54
2023-02-04T08:53:06.783Z,5.12
2023-02-04T08:56:10.559Z,4.70
2023-02-04T08:59:13.666Z,5.04
2023-02-04T09:02:16.412Z,4.85
2023-02-04T09:05:19.484Z,4.60
2023-02-04T09:08:22.166Z,4.45
2023-02-04T09:11:25.550Z,4.36
2023-02-04T09:14:28.316Z,4.60
2023-02-04T09:17:31.374Z,4.46
2023-02-04T09:20:36.281Z,4.61
2023-02-04T09:23:39.330Z,4.39
2023-02-04T09:26:42.018Z,3.96
2023-02-04T09:29:45.029Z,4.04
2023-02-04T09:32:47.610Z,4.26
2023-02-04T09:35:50.670Z,3.98
2023-02-04T09:38:53.375Z,3.63
2023-02-04T09:41:56.700Z,3.38
2023-02-04T09:45:01.651Z,3.13
2023-02-04T09:48:07.156Z,3.07
2023-02-04T09:51:15.735Z,2.97
2023-02-04T09:54:21.274Z,3.06
2023-02-04T09:57:23.989Z,3.34
2023-02-04T10:00:30.254Z,4.29
2023-02-04T10:03:35.603Z,3.76
2023-02-04T10:06:38.947Z,4.14
2023-02-04T10:09:41.968Z,4.42
2023-02-04T10:12:46.569Z,4.36
2023-02-04T10:15:51.081Z,4.49
2023-02-04T10:18:53.849Z,4.30
2023-02-04T10:21:57.802Z,4.25
2023-02-04T10:25:00.434Z,5.58
2023-02-04T10:28:03.852Z,6.12
2023-02-04T10:31:10.794Z,6.82
2023-02-04T10:34:17.508Z,6.81
2023-02-04T10:37:22.720Z,7.31
2023-02-04T10:40:34.264Z,7.04
2023-02-04T10:43:37.125Z,7.26
2023-02-04T10:46:40.669Z,7.53
2023-02-04T10:49:56.265Z,7.83
2023-02-04T10:53:20.820Z,7.42
2023-02-04T10:56:23.679Z,7.94
2023-02-04T10:59:28.119Z,8.06
2023-02-04T11:02:33.793Z,8.03
2023-02-04T11:05:37.186Z,8.21
2023-02-04T11:08:40.712Z,8.23
2023-02-04T11:11:48.828Z,8.23
2023-02-04T11:14:58.803Z,7.26
2023-02-04T11:18:08.010Z,6.47
2023-02-04T11:21:21.857Z,6.22
2023-02-04T11:24:26.082Z,5.93
2023-02-04T11:27:40.534Z,5.88
2023-02-04T11:30:43.700Z,6.00
2023-02-04T11:33:47.817Z,6.77
2023-02-04T11:37:08.341Z,6.38
2023-02-04T11:40:25.517Z,7.10
2023-02-04T11:43:30.595Z,6.25
2023-02-04T11:46:33.457Z,5.96
2023-02-04T11:49:37.210Z,6.02
2023-02-04T11:52:40.250Z,5.36
2023-02-04T11:55:47.414Z,5.99
2023-02-04T11:58:51.101Z,6.44
2023-02-04T12:02:05.906Z,6.88
2023-02-04T12:05:12.388Z,7.09
2023-02-04T12:08:24.200Z,6.41
2023-02-04T12:11:32.902Z,5.90
2023-02-04T12:14:37.971Z,6.45
2023-02-04T12:17:44.460Z,6.55
2023-02-04T12:20:47.257Z,6.98
2023-02-04T12:23:50.233Z,7.22
2023-02-04T12:26:52.928Z,7.38
2023-02-04T12:29:55.915Z,7.30
2023-02-04T12:32:58.681Z,6.89
2023-02-04T12:36:01.733Z,6.20
2023-02-04T12:39:04.584Z,6.36
2023-02-04T12:42:07.620Z,6.55
2023-02-04T12:45:14.443Z,7.28
2023-02-04T12:48:17.596Z,7.69
2023-02-04T12:51:21.371Z,6.20
2023-02-04T12:54:24.668Z,6.92
2023-02-04T12:57:27.570Z,7.54
2023-02-04T13:00:30.755Z,7.75
2023-02-04T13:03:33.731Z,7.08
2023-02-04T13:06:36.883Z,5.65
2023-02-04T13:09:39.540Z,4.81
2023-02-04T13:12:43.126Z,4.62
2023-02-04T13:15:46.223Z,4.66
2023-02-04T13:18:49.312Z,4.44
2023-02-04T13:21:52.080Z,4.48
2023-02-04T13:24:55.192Z,4.56
2023-02-04T13:27:58.126Z,4.32
2023-02-04T13:31:04.092Z,3.94
2023-02-04T13:34:08.130Z,3.62
2023-02-04T13:37:11.484Z,3.71
2023-02-04T13:40:14.361Z,3.96
2023-02-04T13:43:17.486Z,4.29
2023-02-04T13:46:21.678Z,4.53
2023-02-04T13:49:25.156Z,4.43
2023-02-04T13:52:27.849Z,3.89
2023-02-04T13:55:31.416Z,3.60
2023-02-04T13:58:34.477Z,3.18
2023-02-04T14:01:37.508Z,2.82
2023-02-04T14:04:42.562Z,2.68
2023-02-04T14:07:45.361Z,2.57
2023-02-04T14:10:48.679Z,2.46
2023-02-04T14:13:51.451Z,2.34
2023-02-04T14:16:54.533Z,2.20
2023-02-04T14:19:57.426Z,2.14
2023-02-04T14:23:00.786Z,2.05
2023-02-04T14:26:03.657Z,1.96
2023-02-04T14:29:07.559Z,1.87
2023-02-04T14:32:10.364Z,1.94
2023-02-04T14:35:15.658Z,2.17
2023-02-04T14:38:18.766Z,2.37
2023-02-04T14:41:22.499Z,2.40
2023-02-04T14:44:25.517Z,2.22
2023-02-04T14:47:28.971Z,2.10
2023-02-04T14:50:32.510Z,2.02
2023-02-04T14:53:36.430Z,1.97
2023-02-04T14:56:39.345Z,2.01
2023-02-04T14:59:43.524Z,2.11
2023-02-04T15:02:47.792Z,2.10
2023-02-04T15:05:50.871Z,2.11
2023-02-04T15:08:53.622Z,2.04
2023-02-04T15:11:57.055Z,1.90
2023-02-04T15:14:59.880Z,1.76
2023-02-04T15:18:03.083Z,1.58
2023-02-04T15:21:06.033Z,1.50
2023-02-04T15:24:09.565Z,1.43
2023-02-04T15:27:12.310Z,1.40
2023-02-04T15:30:15.904Z,1.38
2023-02-04T15:33:18.897Z,1.34
2023-02-04T15:36:22.100Z,1.19
2023-02-04T15:39:25.075Z,1.02
2023-02-04T15:42:28.331Z,0.85
2023-02-04T15:45:31.271Z,0.74
2023-02-04T15:48:34.454Z,0.62
2023-02-04T15:51:37.146Z,0.55
2023-02-04T15:54:40.691Z,0.56
2023-02-04T15:57:43.556Z,0.57
2023-02-04T16:00:46.848Z,0.60
2023-02-04T16:03:51.383Z,0.64
2023-02-04T16:06:58.947Z,0.68
2023-02-04T16:10:02.634Z,0.69
2023-02-04T16:13:05.334Z,0.63
2023-02-04T16:16:08.718Z,0.57
2023-02-04T16:19:11.606Z,0.56
2023-02-04T16:22:14.847Z,0.51
2023-02-04T16:25:18.648Z,0.45
2023-02-04T16:28:21.751Z,0.42
2023-02-04T16:31:24.805Z,0.41
2023-02-04T16:34:29.753Z,0.40
2023-02-04T16:37:33.401Z,0.35
2023-02-04T16:40:36.957Z,0.36
2023-02-04T16:43:40.000Z,0.36
2023-02-04T16:46:43.244Z,0.36
2023-02-04T16:49:46.119Z,0.35
2023-02-04T16:52:49.679Z,0.37
2023-02-04T16:55:52.866Z,0.37
2023-02-04T16:58:56.287Z,0.34
2023-02-04T17:02:00.978Z,0.40
2023-02-04T17:05:04.653Z,0.36
2023-02-04T17:08:07.701Z,0.30
2023-02-04T17:11:29.802Z,0.31
2023-02-04T17:14:32.901Z,0.30
2023-02-04T17:17:36.134Z,0.26
2023-02-04T17:20:39.011Z,0.27
2023-02-04T17:23:42.935Z,0.22
2023-02-04T17:26:46.293Z,0.30
2023-02-04T17:29:49.719Z,0.21
2023-02-04T17:32:52.867Z,0.22
2023-02-04T17:35:56.500Z,0.20
2023-02-04T17:38:59.794Z,0.21
2023-02-04T17:42:03.424Z,0.22
2023-02-04T17:45:07.343Z,0.21
2023-02-04T17:48:10.915Z,0.20
2023-02-04T17:51:14.118Z,0.25
2023-02-04T17:54:17.465Z,0.24
2023-02-04T17:57:21.831Z,0.30
2023-02-04T18:00:29.604Z,0.35
2023-02-04T18:03:33.779Z,0.37
2023-02-04T18:06:38.113Z,0.37
2023-02-04T18:09:41.228Z,0.36
2023-02-04T18:12:45.299Z,0.31
2023-02-04T18:16:01.298Z,0.24
2023-02-04T18:19:20.431Z,0.21
2023-02-04T18:22:25.769Z,0.13
2023-02-04T18:25:30.453Z,0.04
2023-02-04T18:28:39.668Z,-0.07
2023-02-04T18:31:53.440Z,-0.15
2023-02-04T18:34:59.312Z,-0.22
2023-02-04T18:38:02.626Z,-0.29
2023-02-04T18:41:28.040Z,-0.35
2023-02-04T18:44:38.250Z,-0.38
2023-02-04T18:47:41.771Z,-0.40
2023-02-04T18:50:46.707Z,-0.44
2023-02-04T18:53:51.777Z,-0.52
2023-02-04T18:57:04.578Z,-0.53
2023-02-04T19:00:11.575Z,-0.53
2023-02-04T19:03:29.989Z,-0.58
2023-02-04T19:06:41.016Z,-0.57
2023-02-04T19:09:44.201Z,-0.59
2023-02-04T19:12:48.550Z,-0.60
2023-02-04T19:16:25.826Z,-0.66
2023-02-04T19:19:39.203Z,-0.66
2023-02-04T19:22:46.756Z,-0.64
2023-02-04T19:25:52.486Z,-0.62
2023-02-04T19:28:55.976Z,-0.58
2023-02-04T19:32:19.709Z,-0.66
2023-02-04T19:35:25.418Z,-0.75
2023-02-04T19:38:45.868Z,-0.76
2023-02-04T19:41:51.621Z,-0.74
2023-02-04T19:44:57.355Z,-0.75
2023-02-04T19:48:02.270Z,-0.77
2023-02-04T19:51:25.705Z,-0.81
2023-02-04T19:54:38.704Z,-0.89
2023-02-04T19:57:42.157Z,-0.91
2023-02-04T20:00:57.570Z,-0.92
2023-02-04T20:04:03.149Z,-0.97
2023-02-04T20:07:18.235Z,-0.96
2023-02-04T20:10:28.881Z,-0.97
2023-02-04T20:13:32.653Z,-0.95
2023-02-04T20:16:44.946Z,-0.95
2023-02-04T20:19:49.098Z,-0.99
2023-02-04T20:22:52.835Z,-0.99
2023-02-04T20:25:58.121Z,-1.01
2023-02-04T20:29:06.085Z,-1.03
2023-02-04T20:32:29.111Z,-1.02
2023-02-04T20:35:32.799Z,-1.07
2023-02-04T20:38:36.344Z,-1.06
2023-02-04T20:41:40.578Z,-1.10
2023-02-04T20:44:43.944Z,-1.09
2023-02-04T20:47:51.787Z,-1.08
2023-02-04T20:50:57.464Z,-1.07
2023-02-04T20:54:07.565Z,-1.10
2023-02-04T20:57:21.019Z,-1.13
2023-02-04T21:00:32.165Z,-1.14
2023-02-04T21:03:37.870Z,-1.17
2023-02-04T21:06:41.420Z,-1.18
2023-02-04T21:09:45.225Z,-1.23
2023-02-04T21:12:48.514Z,-1.28
2023-02-04T21:15:51.861Z,-1.28
2023-02-04T21:18:55.262Z,-1.28
2023-02-04T21:21:59.049Z,-1.25
2023-02-04T21:25:02.491Z,-1.28
2023-02-04T21:28:06.444Z,-1.28
2023-02-04T21:31:11.771Z,-1.26
2023-02-04T21:34:16.338Z,-1.25
2023-02-04T21:37:19.886Z,-1.23
2023-02-04T21:40:22.765Z,-1.21
2023-02-04T21:43:26.330Z,-1.21
2023-02-04T21:46:29.477Z,-1.21
2023-02-04T21:49:32.732Z,-1.22
2023-02-04T21:52:36.163Z,-1.26
2023-02-04T21:55:40.202Z,-1.24
2023-02-04T21:58:43.236Z,-1.25
2023-02-04T22:01:46.449Z,-1.25
2023-02-04T22:04:49.678Z,-1.25
2023-02-04T22:07:53.019Z,-1.24
2023-02-04T22:10:56.091Z,-1.24
2023-02-04T22:13:58.787Z,-1.25
2023-02-04T22:17:01.922Z,-1.30
2023-02-04T22:20:04.933Z,-1.34
2023-02-04T22:23:07.883Z,-1.34
2023-02-04T22:26:10.679Z,-1.37
2023-02-04T22:29:13.698Z,-1.37
2023-02-04T22:32:16.447Z,-1.42
2023-02-04T22:35:19.501Z,-1.40
2023-02-04T22:38:22.216Z,-1.40
2023-02-04T22:41:25.232Z,-1.42
2023-02-04T22:44:28.031Z,-1.44
2023-02-04T22:47:31.784Z,-1.41
2023-02-04T22:50:34.531Z,-1.43
2023-02-04T22:53:37.620Z,-1.44
2023-02-04T22:56:40.288Z,-1.47
2023-02-04T22:59:43.340Z,-1.52
2023-02-04T23:02:46.049Z,-1.49
2023-02-04T23:05:49.178Z,-1.51
2023-02-04T23:08:52.006Z,-1.54
2023-02-04T23:11:56.970Z,-1.55
2023-02-04T23:14:59.699Z,-1.56
2023-02-04T23:18:02.681Z,-1.60
2023-02-04T23:21:05.575Z,-1.67
2023-02-04T23:24:08.778Z,-1.67
2023-02-04T23:27:12.247Z,-1.71
2023-02-04T23:30:16.497Z,-1.70
2023-02-04T23:33:19.244Z,-1.75
2023-02-04T23:36:22.812Z,-1.73
2023-02-04T23:39:25.706Z,-1.70
2023-02-04T23:42:30.934Z,-1.70
2023-02-04T23:45:34.063Z,-1.70
2023-02-04T23:48:37.171Z,-1.70
2023-02-04T23:51:40.202Z,-1.70
2023-02-04T23:54:43.313Z,-1.67
2023-02-04T23:57:49.829Z,-1.66
